createdAt,value
2018-02-05T00:00:51.014Z,1022.13
2018-02-05T00:02:42.999Z,1022.13
2018-02-05T00:03:42.778Z,1022.13
2018-02-05T00:05:34.666Z,1022.16
2018-02-05T00:06:34.461Z,1022.15
2018-02-05T00:08:26.438Z,1022.12
2018-02-05T00:09:26.357Z,1022.09
2018-02-05T00:11:18.016Z,1022.05
2018-02-05T00:12:18.042Z,1022.07
2018-02-05T00:14:09.909Z,1022.07
2018-02-05T00:15:09.602Z,1022.09
2018-02-05T00:17:02.042Z,1022.08
2018-02-05T00:18:01.352Z,1022.11
2018-02-05T00:19:54.019Z,1022.10
2018-02-05T00:20:53.016Z,1022.12
2018-02-05T00:22:44.838Z,1022.11
2018-02-05T00:23:44.758Z,1022.11
2018-02-05T00:25:36.667Z,1022.10
2018-02-05T00:26:36.647Z,1022.13
2018-02-05T00:28:28.427Z,1022.21
2018-02-05T00:29:28.315Z,1022.25
2018-02-05T00:31:20.076Z,1022.29
2018-02-05T00:32:19.965Z,1022.30
2018-02-05T00:34:11.866Z,1022.32
2018-02-05T00:35:11.830Z,1022.30
2018-02-05T00:37:03.477Z,1022.30
2018-02-05T00:38:03.403Z,1022.39
2018-02-05T00:39:55.475Z,1022.41
2018-02-05T00:40:55.208Z,1022.39
2018-02-05T00:42:47.060Z,1022.40
2018-02-05T00:43:47.027Z,1022.42
2018-02-05T00:45:39.828Z,1022.43
2018-02-05T00:46:38.674Z,1022.41
2018-02-05T00:48:30.540Z,1022.45
2018-02-05T00:49:30.281Z,1022.45
2018-02-05T00:51:22.155Z,1022.44
2018-02-05T00:52:22.133Z,1022.48
2018-02-05T00:54:13.952Z,1022.49
2018-02-05T00:55:13.763Z,1022.49
2018-02-05T00:57:05.596Z,1022.53
2018-02-05T00:58:05.525Z,1022.56
2018-02-05T00:59:57.513Z,1022.51
2018-02-05T01:00:57.379Z,1022.53
2018-02-05T01:02:49.116Z,1022.57
2018-02-05T01:03:48.972Z,1022.54
2018-02-05T01:05:40.881Z,1022.59
2018-02-05T01:06:40.770Z,1022.56
2018-02-05T01:08:32.597Z,1022.60
2018-02-05T01:09:33.665Z,1022.64
2018-02-05T01:11:24.302Z,1022.66
2018-02-05T01:12:24.218Z,1022.66
2018-02-05T01:14:16.320Z,1022.68
2018-02-05T01:15:15.974Z,1022.68
2018-02-05T01:17:07.676Z,1022.67
2018-02-05T01:18:07.675Z,1022.68
2018-02-05T01:19:59.828Z,1022.68
2018-02-05T01:20:59.413Z,1022.76
2018-02-05T01:22:51.728Z,1022.74
2018-02-05T01:23:51.228Z,1022.77
2018-02-05T01:25:43.028Z,1022.73
2018-02-05T01:26:43.098Z,1022.72
2018-02-05T01:28:34.802Z,1022.75
2018-02-05T01:29:34.659Z,1022.77
2018-02-05T01:31:26.607Z,1022.75
2018-02-05T01:32:26.610Z,1022.78
2018-02-05T01:34:18.334Z,1022.77
2018-02-05T01:35:18.227Z,1022.81
2018-02-05T01:37:10.039Z,1022.78
2018-02-05T01:38:09.963Z,1022.79
2018-02-05T01:40:01.935Z,1022.79
2018-02-05T01:41:01.803Z,1022.81
2018-02-05T01:42:53.658Z,1022.84
2018-02-05T01:43:53.426Z,1022.81
2018-02-05T01:45:45.302Z,1022.83
2018-02-05T01:46:45.104Z,1022.84
2018-02-05T01:48:37.187Z,1022.85
2018-02-05T01:49:37.101Z,1022.87
2018-02-05T01:51:29.036Z,1022.86
2018-02-05T01:52:28.937Z,1022.89
2018-02-05T01:54:20.685Z,1022.85
2018-02-05T01:55:20.752Z,1022.84
2018-02-05T01:57:12.423Z,1022.89
2018-02-05T01:58:12.338Z,1022.91
2018-02-05T02:00:04.102Z,1022.90
2018-02-05T02:01:04.066Z,1022.92
2018-02-05T02:02:55.985Z,1022.93
2018-02-05T02:03:55.704Z,1022.96
2018-02-05T02:05:47.507Z,1022.96
2018-02-05T02:06:47.403Z,1022.98
2018-02-05T02:08:39.349Z,1022.95
2018-02-05T02:09:39.155Z,1022.95
2018-02-05T02:11:31.423Z,1022.96
2018-02-05T02:12:30.985Z,1022.94
2018-02-05T02:14:22.847Z,1022.94
2018-02-05T02:15:22.889Z,1022.93
2018-02-05T02:17:14.588Z,1022.95
2018-02-05T02:18:15.274Z,1022.97
2018-02-05T02:20:06.378Z,1022.95
2018-02-05T02:21:06.349Z,1022.96
2018-02-05T02:22:58.348Z,1022.99
2018-02-05T02:23:58.139Z,1023.00
2018-02-05T02:25:49.863Z,1022.99
2018-02-05T02:26:49.868Z,1023.00
2018-02-05T02:28:41.533Z,1023.03
2018-02-05T02:29:41.438Z,1023.07
2018-02-05T02:31:33.243Z,1023.02
2018-02-05T02:32:33.142Z,1023.09
2018-02-05T02:34:24.899Z,1023.06
2018-02-05T02:35:24.884Z,1023.09
2018-02-05T02:37:16.870Z,1023.10
2018-02-05T02:38:16.615Z,1023.06
2018-02-05T02:40:08.438Z,1023.09
2018-02-05T02:41:08.388Z,1023.13
2018-02-05T02:43:00.466Z,1023.12
2018-02-05T02:44:00.161Z,1023.13
2018-02-05T02:45:51.937Z,1023.13
2018-02-05T02:46:51.893Z,1023.17
2018-02-05T02:48:43.549Z,1023.14
2018-02-05T02:49:43.449Z,1023.21
2018-02-05T02:51:35.370Z,1023.23
2018-02-05T02:52:35.314Z,1023.19
2018-02-05T02:54:28.573Z,1023.23
2018-02-05T02:55:27.175Z,1023.27
2018-02-05T02:57:19.112Z,1023.27
2018-02-05T02:58:18.999Z,1023.23
2018-02-05T03:00:10.998Z,1023.22
2018-02-05T03:01:10.800Z,1023.28
2018-02-05T03:03:02.476Z,1023.28
2018-02-05T03:04:02.759Z,1023.28
2018-02-05T03:05:54.230Z,1023.29
2018-02-05T03:06:54.086Z,1023.31
2018-02-05T03:08:45.925Z,1023.35
2018-02-05T03:09:45.793Z,1023.33
2018-02-05T03:11:37.601Z,1023.36
2018-02-05T03:12:37.538Z,1023.38
2018-02-05T03:14:29.365Z,1023.39
2018-02-05T03:15:29.291Z,1023.42
2018-02-05T03:17:21.307Z,1023.43
2018-02-05T03:18:21.132Z,1023.44
2018-02-05T03:20:12.913Z,1023.39
2018-02-05T03:21:12.742Z,1023.41
2018-02-05T03:23:04.607Z,1023.41
2018-02-05T03:24:04.527Z,1023.44
2018-02-05T03:25:56.430Z,1023.46
2018-02-05T03:26:56.252Z,1023.45
2018-02-05T03:28:47.980Z,1023.44
2018-02-05T03:29:47.972Z,1023.47
2018-02-05T03:31:39.834Z,1023.49
2018-02-05T03:32:39.702Z,1023.52
2018-02-05T03:34:31.523Z,1023.52
2018-02-05T03:35:31.496Z,1023.54
2018-02-05T03:37:23.327Z,1023.55
2018-02-05T03:38:23.288Z,1023.58
2018-02-05T03:40:15.028Z,1023.56
2018-02-05T03:41:14.875Z,1023.58
2018-02-05T03:43:06.741Z,1023.61
2018-02-05T03:44:06.556Z,1023.58
2018-02-05T03:45:58.933Z,1023.63
2018-02-05T03:46:58.398Z,1023.65
2018-02-05T03:48:50.213Z,1023.69
2018-02-05T03:49:50.088Z,1023.68
2018-02-05T03:51:42.034Z,1023.66
2018-02-05T03:52:41.802Z,1023.67
2018-02-05T03:54:33.616Z,1023.64
2018-02-05T03:55:33.567Z,1023.69
2018-02-05T03:57:25.495Z,1023.71
2018-02-05T03:58:25.379Z,1023.66
2018-02-05T04:00:17.119Z,1023.71
2018-02-05T04:01:17.001Z,1023.73
2018-02-05T04:03:08.886Z,1023.73
2018-02-05T04:04:08.808Z,1023.73
2018-02-05T04:06:01.353Z,1023.74
2018-02-05T04:07:00.603Z,1023.76
2018-02-05T04:08:52.424Z,1023.76
2018-02-05T04:09:52.277Z,1023.77
2018-02-05T04:11:44.173Z,1023.80
2018-02-05T04:12:43.978Z,1023.76
2018-02-05T04:14:35.797Z,1023.80
2018-02-05T04:15:35.673Z,1023.78
2018-02-05T04:17:27.516Z,1023.80
2018-02-05T04:18:27.753Z,1023.82
2018-02-05T04:20:19.374Z,1023.86
2018-02-05T04:21:19.070Z,1023.91
2018-02-05T04:23:11.016Z,1023.89
2018-02-05T04:24:10.908Z,1023.91
2018-02-05T04:26:02.930Z,1023.95
2018-02-05T04:27:02.618Z,1023.95
2018-02-05T04:28:54.394Z,1023.98
2018-02-05T04:29:55.020Z,1023.94
2018-02-05T04:31:46.070Z,1023.91
2018-02-05T04:32:45.960Z,1023.98
2018-02-05T04:34:37.765Z,1023.93
2018-02-05T04:35:37.830Z,1023.99
2018-02-05T04:37:29.476Z,1024.00
2018-02-05T04:38:29.386Z,1023.94
2018-02-05T04:40:21.089Z,1023.95
2018-02-05T04:41:21.014Z,1023.99
2018-02-05T04:43:12.780Z,1024.03
2018-02-05T04:44:12.715Z,1024.01
2018-02-05T04:46:04.478Z,1024.05
2018-02-05T04:47:04.402Z,1024.09
2018-02-05T04:48:56.219Z,1024.10
2018-02-05T04:49:56.121Z,1024.12
2018-02-05T04:51:47.936Z,1024.09
2018-02-05T04:52:47.846Z,1024.06
2018-02-05T04:54:39.641Z,1024.02
2018-02-05T04:55:39.527Z,1024.07
2018-02-05T04:57:31.269Z,1024.10
2018-02-05T04:58:31.216Z,1024.06
2018-02-05T05:00:23.079Z,1024.09
2018-02-05T05:01:22.904Z,1024.11
2018-02-05T05:03:14.651Z,1024.13
2018-02-05T05:04:14.547Z,1024.10
2018-02-05T05:06:06.657Z,1024.07
2018-02-05T05:07:06.386Z,1024.07
2018-02-05T05:08:58.828Z,1024.10
2018-02-05T05:09:58.095Z,1024.07
2018-02-05T05:11:49.902Z,1024.12
2018-02-05T05:12:50.023Z,1024.09
2018-02-05T05:14:41.793Z,1024.15
2018-02-05T05:15:41.718Z,1024.13
2018-02-05T05:17:33.419Z,1024.14
2018-02-05T05:18:33.400Z,1024.09
2018-02-05T05:20:25.227Z,1024.12
2018-02-05T05:21:25.054Z,1024.20
2018-02-05T05:23:16.851Z,1024.21
2018-02-05T05:24:16.879Z,1024.18
2018-02-05T05:26:08.642Z,1024.18
2018-02-05T05:27:08.532Z,1024.19
2018-02-05T05:29:00.288Z,1024.20
2018-02-05T05:30:00.290Z,1024.21
2018-02-05T05:31:52.214Z,1024.20
2018-02-05T05:32:51.915Z,1024.19
2018-02-05T05:34:43.712Z,1024.25
2018-02-05T05:35:43.570Z,1024.25
2018-02-05T05:37:35.358Z,1024.25
2018-02-05T05:38:35.388Z,1024.22
2018-02-05T05:40:27.154Z,1024.25
2018-02-05T05:41:27.017Z,1024.31
2018-02-05T05:43:19.185Z,1024.30
2018-02-05T05:44:19.021Z,1024.28
2018-02-05T05:46:10.790Z,1024.27
2018-02-05T05:47:10.664Z,1024.27
2018-02-05T05:49:02.518Z,1024.31
2018-02-05T05:50:02.395Z,1024.31
2018-02-05T05:51:54.148Z,1024.35
2018-02-05T05:52:54.058Z,1024.39
2018-02-05T05:54:45.922Z,1024.38
2018-02-05T05:55:45.953Z,1024.41
2018-02-05T05:57:37.669Z,1024.42
2018-02-05T05:58:37.583Z,1024.41
2018-02-05T06:00:29.375Z,1024.42
2018-02-05T06:01:29.313Z,1024.40
2018-02-05T06:03:21.340Z,1024.37
2018-02-05T06:04:20.929Z,1024.41
2018-02-05T06:06:12.768Z,1024.40
2018-02-05T06:07:12.649Z,1024.39
2018-02-05T06:09:04.346Z,1024.40
2018-02-05T06:10:04.321Z,1024.42
2018-02-05T06:11:56.141Z,1024.41
2018-02-05T06:12:56.115Z,1024.39
2018-02-05T06:14:47.765Z,1024.40
2018-02-05T06:15:47.638Z,1024.38
2018-02-05T06:17:39.430Z,1024.41
2018-02-05T06:18:39.306Z,1024.42
2018-02-05T06:20:31.141Z,1024.44
2018-02-05T06:21:31.004Z,1024.47
2018-02-05T06:23:22.825Z,1024.40
2018-02-05T06:24:22.750Z,1024.46
2018-02-05T06:26:15.300Z,1024.51
2018-02-05T06:27:15.102Z,1024.50
2018-02-05T06:29:06.862Z,1024.59
2018-02-05T06:30:06.788Z,1024.59
2018-02-05T06:31:58.531Z,1024.63
2018-02-05T06:32:58.483Z,1024.59
2018-02-05T06:34:50.162Z,1024.59
2018-02-05T06:35:50.157Z,1024.60
2018-02-05T06:37:41.859Z,1024.66
2018-02-05T06:38:41.777Z,1024.69
2018-02-05T06:40:33.603Z,1024.71
2018-02-05T06:41:33.529Z,1024.73
2018-02-05T06:43:25.267Z,1024.71
2018-02-05T06:44:25.198Z,1024.71
2018-02-05T06:46:16.940Z,1024.72
2018-02-05T06:47:17.107Z,1024.69
2018-02-05T06:49:08.798Z,1024.68
2018-02-05T06:50:08.558Z,1024.70
2018-02-05T06:52:00.389Z,1024.67
2018-02-05T06:53:00.239Z,1024.70
2018-02-05T06:54:52.016Z,1024.79
2018-02-05T06:55:51.976Z,1024.77
2018-02-05T06:57:43.862Z,1024.76
2018-02-05T06:58:43.648Z,1024.82
2018-02-05T07:00:35.424Z,1024.86
2018-02-05T07:01:35.338Z,1024.82
2018-02-05T07:03:27.384Z,1024.85
2018-02-05T07:04:27.108Z,1024.87
2018-02-05T07:06:19.020Z,1024.88
2018-02-05T07:07:18.828Z,1024.86
2018-02-05T07:09:11.970Z,1024.91
2018-02-05T07:10:10.951Z,1024.89
2018-02-05T07:12:02.636Z,1024.97
2018-02-05T07:13:02.484Z,1024.92
2018-02-05T07:14:54.221Z,1024.95
2018-02-05T07:15:54.128Z,1025.01
2018-02-05T07:17:45.921Z,1025.05
2018-02-05T07:18:45.824Z,1024.99
2018-02-05T07:20:37.849Z,1025.04
2018-02-05T07:21:37.648Z,1025.05
2018-02-05T07:23:29.778Z,1025.07
2018-02-05T07:24:29.490Z,1025.07
2018-02-05T07:26:21.300Z,1025.09
2018-02-05T07:27:21.250Z,1025.09
2018-02-05T07:29:13.084Z,1025.05
2018-02-05T07:30:12.930Z,1025.12
2018-02-05T07:32:04.708Z,1025.13
2018-02-05T07:33:04.639Z,1025.12
2018-02-05T07:34:56.393Z,1025.16
2018-02-05T07:35:56.419Z,1025.18
2018-02-05T07:37:48.066Z,1025.16
2018-02-05T07:38:48.061Z,1025.12
2018-02-05T07:40:39.805Z,1025.15
2018-02-05T07:41:39.783Z,1025.13
2018-02-05T07:43:31.467Z,1025.13
2018-02-05T07:44:31.445Z,1025.12
2018-02-05T07:46:23.304Z,1025.17
2018-02-05T07:47:23.241Z,1025.19
2018-02-05T07:49:15.122Z,1025.20
2018-02-05T07:50:14.977Z,1025.17
2018-02-05T07:52:06.743Z,1025.17
2018-02-05T07:53:06.707Z,1025.14
2018-02-05T07:54:58.496Z,1025.17
2018-02-05T07:55:58.383Z,1025.21
2018-02-05T07:57:50.128Z,1025.22
2018-02-05T07:58:50.181Z,1025.21
2018-02-05T08:00:41.812Z,1025.20
2018-02-05T08:01:41.746Z,1025.28
2018-02-05T08:03:34.313Z,1025.27
2018-02-05T08:04:33.541Z,1025.28
2018-02-05T08:06:25.257Z,1025.30
2018-02-05T08:07:25.161Z,1025.29
2018-02-05T08:09:16.951Z,1025.33
2018-02-05T08:10:16.876Z,1025.35
2018-02-05T08:12:08.629Z,1025.32
2018-02-05T08:13:08.652Z,1025.35
2018-02-05T08:15:00.332Z,1025.40
2018-02-05T08:16:00.359Z,1025.36
2018-02-05T08:17:52.069Z,1025.41
2018-02-05T08:18:52.012Z,1025.39
2018-02-05T08:20:43.816Z,1025.47
2018-02-05T08:21:43.740Z,1025.41
2018-02-05T08:23:36.132Z,1025.42
2018-02-05T08:24:35.498Z,1025.43
2018-02-05T08:26:27.389Z,1025.44
2018-02-05T08:27:27.257Z,1025.37
2018-02-05T08:29:19.260Z,1025.38
2018-02-05T08:30:19.202Z,1025.41
2018-02-05T08:32:10.940Z,1025.41
2018-02-05T08:33:10.858Z,1025.41
2018-02-05T08:35:02.781Z,1025.46
2018-02-05T08:36:02.718Z,1025.52
2018-02-05T08:37:54.755Z,1025.80
2018-02-05T08:38:54.424Z,1025.88
2018-02-05T08:40:46.167Z,1025.92
2018-02-05T08:41:46.288Z,1025.95
2018-02-05T08:43:38.051Z,1025.99
2018-02-05T08:44:37.956Z,1026.01
2018-02-05T08:46:29.775Z,1026.02
2018-02-05T08:47:29.823Z,1026.11
2018-02-05T08:49:21.502Z,1026.20
2018-02-05T08:50:21.526Z,1026.24
2018-02-05T08:52:13.290Z,1026.30
2018-02-05T08:53:13.116Z,1026.32
2018-02-05T08:55:04.901Z,1026.32
2018-02-05T08:56:04.832Z,1026.37
2018-02-05T08:57:56.663Z,1026.35
2018-02-05T08:58:56.596Z,1026.38
2018-02-05T09:00:48.474Z,1026.31
2018-02-05T09:01:48.289Z,1026.27
2018-02-05T09:03:40.280Z,1025.83
2018-02-05T09:04:40.063Z,1025.85
2018-02-05T09:06:31.962Z,1025.83
2018-02-05T09:07:31.854Z,1025.80
2018-02-05T09:09:23.859Z,1025.80
2018-02-05T09:10:23.581Z,1025.78
2018-02-05T09:12:15.484Z,1025.73
2018-02-05T09:13:15.346Z,1025.72
2018-02-05T09:15:07.270Z,1026.00
2018-02-05T09:16:07.199Z,1025.98
2018-02-05T09:17:58.983Z,1025.93
2018-02-05T09:18:58.924Z,1025.93
2018-02-05T09:20:50.648Z,1025.96
2018-02-05T09:21:50.575Z,1025.96
2018-02-05T09:23:42.464Z,1025.98
2018-02-05T09:24:42.370Z,1025.99
2018-02-05T09:26:34.314Z,1025.98
2018-02-05T09:27:34.103Z,1025.99
2018-02-05T09:29:25.966Z,1025.99
2018-02-05T09:30:25.835Z,1025.96
2018-02-05T09:32:17.661Z,1025.96
2018-02-05T09:33:17.562Z,1025.93
2018-02-05T09:35:09.344Z,1025.94
2018-02-05T09:36:09.287Z,1025.94
2018-02-05T09:38:01.144Z,1025.95
2018-02-05T09:39:01.062Z,1025.88
2018-02-05T09:40:53.024Z,1025.89
2018-02-05T09:41:52.978Z,1025.89
2018-02-05T09:43:44.747Z,1025.86
2018-02-05T09:44:44.692Z,1025.85
2018-02-05T09:46:36.486Z,1025.86
2018-02-05T09:47:36.410Z,1025.88
2018-02-05T09:49:28.361Z,1025.89
2018-02-05T09:50:28.292Z,1025.89
2018-02-05T09:52:20.505Z,1025.85
2018-02-05T09:53:19.997Z,1025.86
2018-02-05T09:55:11.819Z,1025.89
2018-02-05T09:56:11.787Z,1025.82
2018-02-05T09:58:03.513Z,1025.86
2018-02-05T09:59:03.502Z,1025.85
2018-02-05T10:00:55.241Z,1025.85
2018-02-05T10:01:55.181Z,1025.86
2018-02-05T10:03:46.976Z,1025.83
2018-02-05T10:04:46.920Z,1025.83
2018-02-05T10:06:39.377Z,1025.76
2018-02-05T10:07:38.923Z,1025.83
2018-02-05T10:09:30.692Z,1025.86
2018-02-05T10:10:30.599Z,1025.88
2018-02-05T10:12:22.439Z,1025.86
2018-02-05T10:13:22.223Z,1025.83
2018-02-05T10:15:14.132Z,1025.78
2018-02-05T10:16:14.068Z,1025.84
2018-02-05T10:18:05.825Z,1025.83
2018-02-05T10:19:05.765Z,1025.83
2018-02-05T10:20:57.983Z,1025.86
2018-02-05T10:21:57.707Z,1025.79
2018-02-05T10:23:49.585Z,1025.74
2018-02-05T10:24:49.523Z,1025.70
2018-02-05T10:26:41.258Z,1025.76
2018-02-05T10:27:41.295Z,1025.77
2018-02-05T10:29:33.138Z,1025.74
2018-02-05T10:30:33.060Z,1025.70
2018-02-05T10:32:25.851Z,1025.73
2018-02-05T10:33:24.847Z,1025.73
2018-02-05T10:35:16.640Z,1025.71
2018-02-05T10:36:16.590Z,1025.72
2018-02-05T10:38:08.444Z,1025.58
2018-02-05T10:39:08.383Z,1025.73
2018-02-05T10:41:00.252Z,1025.71
2018-02-05T10:42:00.181Z,1025.70
2018-02-05T10:43:52.123Z,1025.69
2018-02-05T10:44:52.050Z,1025.72
2018-02-05T10:46:43.812Z,1025.67
2018-02-05T10:47:43.718Z,1025.62
2018-02-05T10:49:35.488Z,1025.64
2018-02-05T10:50:35.459Z,1025.58
2018-02-05T10:52:27.299Z,1025.57
2018-02-05T10:53:27.253Z,1025.57
2018-02-05T10:55:19.036Z,1025.54
2018-02-05T10:56:18.989Z,1025.51
2018-02-05T10:58:10.856Z,1025.59
2018-02-05T10:59:10.738Z,1025.46
2018-02-05T11:01:02.572Z,1025.49
2018-02-05T11:02:02.584Z,1025.47
2018-02-05T11:03:54.344Z,1025.46
2018-02-05T11:04:54.246Z,1025.47
2018-02-05T11:06:46.037Z,1025.46
2018-02-05T11:07:45.964Z,1025.43
2018-02-05T11:09:37.771Z,1025.42
2018-02-05T11:10:37.715Z,1025.39
2018-02-05T11:12:29.583Z,1025.46
2018-02-05T11:13:29.498Z,1025.41
2018-02-05T11:15:21.286Z,1025.38
2018-02-05T11:16:21.218Z,1025.36
2018-02-05T11:18:13.034Z,1025.33
2018-02-05T11:19:12.966Z,1025.38
2018-02-05T11:21:04.782Z,1025.36
2018-02-05T11:22:04.688Z,1025.35
2018-02-05T11:23:56.525Z,1025.21
2018-02-05T11:24:56.599Z,1025.27
2018-02-05T11:26:48.475Z,1025.28
2018-02-05T11:27:48.418Z,1025.28
2018-02-05T11:29:40.268Z,1025.21
2018-02-05T11:30:40.098Z,1025.27
2018-02-05T11:32:31.851Z,1025.20
2018-02-05T11:33:31.903Z,1025.26
2018-02-05T11:35:23.718Z,1025.19
2018-02-05T11:36:23.695Z,1025.15
2018-02-05T11:38:16.049Z,1025.09
2018-02-05T11:39:15.336Z,1025.09
2018-02-05T11:41:07.195Z,1025.12
2018-02-05T11:42:07.091Z,1025.11
2018-02-05T11:43:59.219Z,1025.05
2018-02-05T11:44:58.797Z,1025.03
2018-02-05T11:46:50.622Z,1025.03
2018-02-05T11:47:50.776Z,1025.03
2018-02-05T11:49:42.449Z,1025.01
2018-02-05T11:50:42.284Z,1025.03
2018-02-05T11:52:33.986Z,1025.00
2018-02-05T11:53:34.006Z,1025.02
2018-02-05T11:55:25.749Z,1024.99
2018-02-05T11:56:25.648Z,1024.95
2018-02-05T11:58:17.485Z,1024.89
2018-02-05T11:59:17.421Z,1024.99
2018-02-05T12:01:09.138Z,1024.93
2018-02-05T12:02:09.008Z,1024.90
2018-02-05T12:04:00.752Z,1024.92
2018-02-05T12:05:00.682Z,1024.92
2018-02-05T12:06:52.450Z,1024.85
2018-02-05T12:07:52.367Z,1024.89
2018-02-05T12:09:44.294Z,1024.89
2018-02-05T12:10:44.140Z,1024.91
2018-02-05T12:12:35.833Z,1024.81
2018-02-05T12:13:35.744Z,1024.80
2018-02-05T12:15:27.502Z,1024.79
2018-02-05T12:16:27.428Z,1024.80
2018-02-05T12:18:19.398Z,1024.68
2018-02-05T12:19:19.476Z,1024.65
2018-02-05T12:21:11.079Z,1024.65
2018-02-05T12:22:11.212Z,1024.61
2018-02-05T12:24:02.803Z,1024.64
2018-02-05T12:25:02.722Z,1024.60
2018-02-05T12:26:54.498Z,1024.60
2018-02-05T12:27:54.389Z,1024.60
2018-02-05T12:29:46.145Z,1024.55
2018-02-05T12:30:46.073Z,1024.54
2018-02-05T12:32:37.894Z,1024.51
2018-02-05T12:33:37.764Z,1024.44
2018-02-05T12:35:29.630Z,1024.49
2018-02-05T12:36:29.547Z,1024.51
2018-02-05T12:38:21.343Z,1024.40
2018-02-05T12:39:21.271Z,1024.45
2018-02-05T12:41:13.049Z,1024.42
2018-02-05T12:42:12.959Z,1024.45
2018-02-05T12:44:04.785Z,1024.43
2018-02-05T12:45:04.880Z,1024.35
2018-02-05T12:46:56.468Z,1024.32
2018-02-05T12:47:56.330Z,1024.36
2018-02-05T12:49:48.122Z,1024.33
2018-02-05T12:50:48.117Z,1024.33
2018-02-05T12:52:39.818Z,1024.28
2018-02-05T12:53:39.742Z,1024.28
2018-02-05T12:55:31.549Z,1024.37
2018-02-05T12:56:31.534Z,1024.33
2018-02-05T12:58:23.254Z,1024.28
2018-02-05T12:59:23.225Z,1024.28
2018-02-05T13:01:14.952Z,1024.24
2018-02-05T13:02:14.883Z,1024.26
2018-02-05T13:04:06.629Z,1024.22
2018-02-05T13:05:06.556Z,1024.29
2018-02-05T13:06:58.327Z,1024.27
2018-02-05T13:07:58.249Z,1024.28
2018-02-05T13:09:50.036Z,1024.17
2018-02-05T13:10:49.966Z,1024.18
2018-02-05T13:12:41.831Z,1024.12
2018-02-05T13:13:41.665Z,1024.19
2018-02-05T13:15:33.451Z,1024.07
2018-02-05T13:16:33.360Z,1024.10
2018-02-05T13:18:25.211Z,1024.10
2018-02-05T13:19:25.296Z,1024.08
2018-02-05T13:21:17.907Z,1024.09
2018-02-05T13:22:17.602Z,1024.12
2018-02-05T13:24:09.486Z,1024.11
2018-02-05T13:25:09.321Z,1024.09
2018-02-05T13:27:01.299Z,1024.10
2018-02-05T13:28:01.161Z,1024.09
2018-02-05T13:29:53.440Z,1024.04
2018-02-05T13:30:53.363Z,1024.05
2018-02-05T13:32:45.650Z,1024.09
2018-02-05T13:33:45.192Z,1024.04
2018-02-05T13:35:37.353Z,1023.97
2018-02-05T13:36:37.898Z,1023.93
2018-02-05T13:38:29.106Z,1023.97
2018-02-05T13:39:28.956Z,1023.92
2018-02-05T13:41:20.680Z,1023.91
2018-02-05T13:42:20.592Z,1023.93
2018-02-05T13:44:12.365Z,1023.93
2018-02-05T13:45:12.262Z,1023.90
2018-02-05T13:47:04.134Z,1023.93
2018-02-05T13:48:04.031Z,1023.90
2018-02-05T13:49:55.806Z,1023.86
2018-02-05T13:50:55.716Z,1023.87
2018-02-05T13:52:47.492Z,1023.86
2018-02-05T13:53:47.435Z,1023.87
2018-02-05T13:55:39.492Z,1023.82
2018-02-05T13:56:39.354Z,1023.82
2018-02-05T13:58:31.127Z,1023.76
2018-02-05T13:59:31.036Z,1023.75
2018-02-05T14:01:22.760Z,1023.70
2018-02-05T14:02:22.704Z,1023.67
2018-02-05T14:04:14.568Z,1023.71
2018-02-05T14:05:14.484Z,1023.69
2018-02-05T14:07:06.467Z,1023.66
2018-02-05T14:08:06.237Z,1023.65
2018-02-05T14:09:58.022Z,1023.66
2018-02-05T14:10:57.943Z,1023.63
2018-02-05T14:12:49.753Z,1023.66
2018-02-05T14:13:49.618Z,1023.63
2018-02-05T14:15:41.423Z,1023.57
2018-02-05T14:16:41.353Z,1023.58
2018-02-05T14:18:33.143Z,1023.55
2018-02-05T14:19:33.107Z,1023.55
2018-02-05T14:21:24.981Z,1023.56
2018-02-05T14:22:24.814Z,1023.57
2018-02-05T14:24:16.557Z,1023.60
2018-02-05T14:25:16.468Z,1023.60
2018-02-05T14:27:08.537Z,1023.55
2018-02-05T14:28:08.353Z,1023.51
2018-02-05T14:30:00.127Z,1023.57
2018-02-05T14:31:00.013Z,1023.55
2018-02-05T14:32:51.789Z,1023.57
2018-02-05T14:33:51.705Z,1023.57
2018-02-05T14:35:43.455Z,1023.61
2018-02-05T14:36:43.377Z,1023.60
2018-02-05T14:38:35.244Z,1023.57
2018-02-05T14:39:35.210Z,1023.62
2018-02-05T14:41:27.009Z,1023.56
2018-02-05T14:42:26.819Z,1023.57
2018-02-05T14:44:18.743Z,1023.56
2018-02-05T14:45:18.696Z,1023.53
2018-02-05T14:47:10.313Z,1023.57
2018-02-05T14:48:10.241Z,1023.54
2018-02-05T14:50:02.085Z,1023.53
2018-02-05T14:51:01.991Z,1023.54
2018-02-05T14:52:53.810Z,1023.56
2018-02-05T14:53:53.696Z,1023.54
2018-02-05T14:55:45.615Z,1023.55
2018-02-05T14:56:45.326Z,1023.51
2018-02-05T14:58:37.118Z,1023.53
2018-02-05T14:59:37.027Z,1023.49
2018-02-05T15:01:28.809Z,1023.55
2018-02-05T15:02:28.705Z,1023.49
2018-02-05T15:04:20.547Z,1023.52
2018-02-05T15:05:20.380Z,1023.44
2018-02-05T15:07:12.338Z,1023.48
2018-02-05T15:08:12.168Z,1023.41
2018-02-05T15:10:04.091Z,1023.37
2018-02-05T15:11:03.876Z,1023.37
2018-02-05T15:12:55.743Z,1023.32
2018-02-05T15:13:55.656Z,1023.34
2018-02-05T15:15:47.368Z,1023.33
2018-02-05T15:16:47.306Z,1023.34
2018-02-05T15:18:39.086Z,1023.30
2018-02-05T15:19:38.996Z,1023.33
2018-02-05T15:21:30.888Z,1023.30
2018-02-05T15:22:30.783Z,1023.25
2018-02-05T15:24:22.576Z,1023.25
2018-02-05T15:25:22.464Z,1023.24
2018-02-05T15:27:14.289Z,1023.21
2018-02-05T15:28:14.134Z,1023.16
2018-02-05T15:30:05.871Z,1023.17
2018-02-05T15:31:05.755Z,1023.15
2018-02-05T15:32:57.533Z,1023.12
2018-02-05T15:33:57.430Z,1023.07
2018-02-05T15:35:49.366Z,1023.07
2018-02-05T15:36:49.165Z,1022.99
2018-02-05T15:38:41.542Z,1023.04
2018-02-05T15:39:41.014Z,1022.97
2018-02-05T15:41:32.861Z,1022.98
2018-02-05T15:42:32.749Z,1023.00
2018-02-05T15:44:25.180Z,1022.98
2018-02-05T15:45:24.535Z,1023.01
2018-02-05T15:47:16.408Z,1023.03
2018-02-05T15:48:16.326Z,1023.03
2018-02-05T15:50:08.596Z,1023.01
2018-02-05T15:51:08.012Z,1022.99
2018-02-05T15:52:59.794Z,1022.97
2018-02-05T15:53:59.774Z,1022.99
2018-02-05T15:55:51.645Z,1023.01
2018-02-05T15:56:51.478Z,1023.04
2018-02-05T15:58:43.190Z,1023.05
2018-02-05T15:59:43.130Z,1023.04
2018-02-05T16:01:34.966Z,1023.05
2018-02-05T16:02:34.814Z,1023.03
2018-02-05T16:04:26.585Z,1023.00
2018-02-05T16:05:26.515Z,1023.03
2018-02-05T16:07:51.124Z,1022.97
2018-02-05T16:08:18.300Z,1022.97
2018-02-05T16:10:10.073Z,1023.01
2018-02-05T16:11:10.162Z,1022.97
2018-02-05T16:13:01.833Z,1022.96
2018-02-05T16:14:01.726Z,1022.94
2018-02-05T16:15:53.695Z,1022.91
2018-02-05T16:16:53.630Z,1022.93
2018-02-05T16:18:45.524Z,1022.99
2018-02-05T16:19:45.342Z,1023.00
2018-02-05T16:21:37.140Z,1022.99
2018-02-05T16:22:37.144Z,1022.99
2018-02-05T16:24:28.792Z,1023.00
2018-02-05T16:25:28.714Z,1022.98
2018-02-05T16:27:20.519Z,1022.95
2018-02-05T16:28:20.477Z,1023.00
2018-02-05T16:30:12.487Z,1023.01
2018-02-05T16:31:12.153Z,1023.00
2018-02-05T16:33:04.077Z,1022.95
2018-02-05T16:34:04.141Z,1022.97
2018-02-05T16:35:55.638Z,1022.98
2018-02-05T16:36:55.564Z,1023.00
2018-02-05T16:38:47.370Z,1022.99
2018-02-05T16:39:47.236Z,1022.99
2018-02-05T16:41:39.000Z,1022.96
2018-02-05T16:42:38.956Z,1023.02
2018-02-05T16:44:30.686Z,1022.97
2018-02-05T16:45:30.596Z,1022.97
2018-02-05T16:47:22.501Z,1022.93
2018-02-05T16:48:22.263Z,1022.93
2018-02-05T16:50:14.105Z,1022.95
2018-02-05T16:51:13.946Z,1022.98
2018-02-05T16:53:05.787Z,1022.96
2018-02-05T16:54:05.734Z,1022.98
2018-02-05T16:55:57.450Z,1022.95
2018-02-05T16:56:57.376Z,1022.92
2018-02-05T16:58:49.304Z,1022.91
2018-02-05T16:59:49.196Z,1022.92
2018-02-05T17:01:40.951Z,1022.94
2018-02-05T17:02:40.959Z,1022.95
2018-02-05T17:04:32.664Z,1022.96
2018-02-05T17:05:32.584Z,1022.94
2018-02-05T17:07:24.330Z,1022.97
2018-02-05T17:08:24.259Z,1022.97
2018-02-05T17:10:16.234Z,1022.96
2018-02-05T17:11:16.208Z,1022.94
2018-02-05T17:13:07.885Z,1022.96
2018-02-05T17:14:07.844Z,1022.94
2018-02-05T17:15:59.668Z,1022.93
2018-02-05T17:16:59.555Z,1022.94
2018-02-05T17:18:51.303Z,1022.96